createdAt,value
2023-04-21T00:00:03.164Z,70
2023-04-21T00:20:02.598Z,70
2023-04-21T00:40:03.116Z,71
2023-04-21T01:00:02.584Z,72
2023-04-21T01:20:03.215Z,71
2023-04-21T01:40:02.772Z,71
2023-04-21T02:00:03.038Z,70
2023-04-21T02:20:04.331Z,71
2023-04-21T02:40:02.775Z,70
2023-04-21T03:00:03.327Z,70
2023-04-21T03:20:03.252Z,70
2023-04-21T03:40:02.761Z,69
2023-04-21T04:00:03.287Z,69
2023-04-21T04:20:02.947Z,69
2023-04-21T04:40:02.490Z,69
2023-04-21T05:00:02.844Z,68
2023-04-21T05:20:02.436Z,67
2023-04-21T05:40:03.025Z,66
2023-04-21T06:00:02.435Z,64
2023-04-21T06:20:03.273Z,62
2023-04-21T06:40:02.748Z,60
2023-04-21T07:00:03.187Z,57
2023-04-21T07:20:02.898Z,54
2023-04-21T07:40:02.479Z,51
2023-04-21T08:00:03.052Z,48
2023-04-21T08:20:02.784Z,45
2023-04-21T08:40:03.317Z,43
2023-04-21T09:00:05.750Z,41
2023-04-21T09:20:03.284Z,39
2023-04-21T09:40:05.672Z,37
2023-04-21T10:00:03.218Z,36
2023-04-21T10:20:02.836Z,35
2023-04-21T10:40:03.174Z,33
2023-04-21T11:00:02.629Z,33
2023-04-21T11:20:03.172Z,33
2023-04-21T11:40:02.788Z,32
2023-04-21T12:00:03.330Z,32
2023-04-21T12:20:03.002Z,30
2023-04-21T12:40:02.799Z,29
2023-04-21T13:00:03.105Z,31
2023-04-21T13:20:02.929Z,32
2023-04-21T13:40:02.617Z,32
2023-04-21T14:00:03.294Z,33
2023-04-21T14:20:03.610Z,34
2023-04-21T14:40:03.131Z,33
2023-04-21T15:00:02.875Z,34
2023-04-21T15:20:02.591Z,34
2023-04-21T15:40:03.099Z,34
2023-04-21T16:00:02.697Z,34
2023-04-21T16:20:02.773Z,34
2023-04-21T16:40:03.177Z,34
2023-04-21T17:00:03.016Z,34
2023-04-21T17:20:02.500Z,34
2023-04-21T17:40:03.535Z,34
2023-04-21T18:00:03.427Z,35
2023-04-21T18:20:03.322Z,36
2023-04-21T18:40:02.865Z,36
2023-04-21T19:00:03.182Z,37
2023-04-21T19:20:02.757Z,38
2023-04-21T19:40:03.328Z,39
2023-04-21T20:00:03.417Z,40
2023-04-21T20:20:03.117Z,42
2023-04-21T20:40:02.388Z,43
2023-04-21T21:00:02.586Z,44
2023-04-21T21:20:02.526Z,45
2023-04-21T21:40:02.945Z,46
2023-04-21T22:00:02.508Z,47
2023-04-21T22:20:03.145Z,48
2023-04-21T22:40:02.660Z,49
2023-04-21T23:00:02.930Z,50
2023-04-21T23:20:02.479Z,51
2023-04-21T23:40:02.841Z,52
